createdAt,value
2022-12-11T00:00:27.739Z,51.33
2022-12-11T00:02:54.829Z,53.80
2022-12-11T00:05:22.568Z,50.05
2022-12-11T00:07:49.734Z,53.88
2022-12-11T00:10:17.127Z,50.15
2022-12-11T00:12:43.965Z,52.97
2022-12-11T00:15:13.936Z,52.22
2022-12-11T00:17:40.887Z,51.40
2022-12-11T00:20:10.474Z,49.60
2022-12-11T00:22:37.908Z,50.33
2022-12-11T00:25:05.756Z,53.85
2022-12-11T00:27:32.703Z,52.35
2022-12-11T00:29:59.585Z,54.65
2022-12-11T00:32:28.438Z,55.70
2022-12-11T00:34:55.564Z,54.00
2022-12-11T00:37:23.801Z,51.22
2022-12-11T00:39:51.492Z,48.65
2022-12-11T00:42:18.412Z,52.55
2022-12-11T00:44:45.383Z,49.50
2022-12-11T00:47:15.258Z,52.25
2022-12-11T00:49:49.412Z,52.72
2022-12-11T00:52:18.138Z,52.47
2022-12-11T00:54:45.605Z,53.67
2022-12-11T00:57:12.516Z,55.58
2022-12-11T00:59:41.008Z,52.25
2022-12-11T01:02:07.771Z,52.05
2022-12-11T01:04:36.865Z,51.55
2022-12-11T01:07:03.824Z,54.55
2022-12-11T01:09:49.451Z,56.28
2022-12-11T01:12:16.316Z,56.33
2022-12-11T01:14:43.527Z,61.65
2022-12-11T01:17:11.224Z,54.90
2022-12-11T01:19:38.092Z,60.70
2022-12-11T01:22:04.928Z,57.08
2022-12-11T01:24:31.783Z,62.95
2022-12-11T01:26:58.637Z,57.75
2022-12-11T01:29:25.533Z,56.17
2022-12-11T01:31:52.327Z,56.05
2022-12-11T01:34:19.157Z,59.22
2022-12-11T01:36:45.983Z,57.08
2022-12-11T01:39:12.971Z,58.97
2022-12-11T01:41:39.985Z,59.13
2022-12-11T01:44:15.932Z,58.60
2022-12-11T01:46:43.456Z,62.05
2022-12-11T01:49:14.003Z,57.97
2022-12-11T01:52:07.183Z,61.50
2022-12-11T01:54:35.210Z,53.80
2022-12-11T01:57:06.649Z,55.58
2022-12-11T02:02:11.380Z,58.65
2022-12-11T02:04:40.156Z,57.33
2022-12-11T02:07:07.029Z,56.40
2022-12-11T02:09:36.651Z,57.75
2022-12-11T02:12:35.020Z,58.55
2022-12-11T02:15:29.789Z,54.50
2022-12-11T02:18:21.248Z,53.38
2022-12-11T02:20:57.151Z,53.53
2022-12-11T02:23:41.198Z,54.25
2022-12-11T02:26:26.745Z,54.55
2022-12-11T02:29:00.297Z,57.35
2022-12-11T02:31:34.553Z,53.55
2022-12-11T02:34:03.602Z,57.60
2022-12-11T02:36:40.380Z,56.47
2022-12-11T02:39:11.129Z,54.83
2022-12-11T02:41:44.186Z,55.40
2022-12-11T02:44:14.020Z,52.83
2022-12-11T02:46:42.939Z,54.70
2022-12-11T02:49:12.554Z,51.47
2022-12-11T02:51:44.364Z,53.90
2022-12-11T02:54:17.907Z,51.65
2022-12-11T02:57:05.106Z,52.20
2022-12-11T02:59:44.328Z,50.55
2022-12-11T03:02:17.643Z,48.42
2022-12-11T03:04:47.629Z,50.33
2022-12-11T03:07:18.897Z,49.17
2022-12-11T03:09:48.766Z,49.10
2022-12-11T03:12:21.090Z,46.97
2022-12-11T03:14:51.206Z,47.28
2022-12-11T03:17:25.532Z,50.40
2022-12-11T03:20:14.286Z,48.33
2022-12-11T03:22:50.029Z,47.80
2022-12-11T03:25:22.187Z,47.58
2022-12-11T03:28:00.637Z,46.85
2022-12-11T03:30:29.050Z,46.28
2022-12-11T03:33:04.744Z,45.60
2022-12-11T03:35:52.543Z,43.67
2022-12-11T03:38:29.970Z,42.97
2022-12-11T03:41:00.950Z,42.85
2022-12-11T03:43:30.083Z,43.75
2022-12-11T03:45:59.120Z,42.28
2022-12-11T03:48:30.966Z,43.83
2022-12-11T03:51:02.029Z,45.35
2022-12-11T03:53:32.384Z,43.20
2022-12-11T03:56:00.690Z,42.80
2022-12-11T03:58:27.557Z,44.30
2022-12-11T04:00:54.444Z,43.85
2022-12-11T04:03:25.954Z,37.95
2022-12-11T04:08:21.563Z,33.85
2022-12-11T04:11:09.523Z,34.75
2022-12-11T04:13:36.963Z,35.72
2022-12-11T04:16:04.359Z,36.40
2022-12-11T04:18:49.575Z,37.63
2022-12-11T04:21:39.652Z,38.70
2022-12-11T04:24:16.289Z,35.65
2022-12-11T04:26:45.073Z,39.05
2022-12-11T04:29:12.190Z,38.35
2022-12-11T04:31:39.444Z,40.53
2022-12-11T04:34:06.655Z,38.85
2022-12-11T04:36:33.699Z,39.75
2022-12-11T04:39:00.525Z,39.65
2022-12-11T04:41:27.620Z,37.63
2022-12-11T04:43:54.677Z,39.17
2022-12-11T04:46:24.501Z,35.80
2022-12-11T04:48:57.339Z,36.50
2022-12-11T04:51:25.396Z,36.88
2022-12-11T04:53:54.396Z,37.63
2022-12-11T04:56:22.547Z,36.05
2022-12-11T04:58:49.429Z,38.42
2022-12-11T05:01:18.981Z,37.88
2022-12-11T05:03:47.197Z,37.10
2022-12-11T05:06:14.542Z,37.03
2022-12-11T05:08:45.375Z,35.22
2022-12-11T05:11:14.820Z,37.13
2022-12-11T05:13:42.311Z,37.13
2022-12-11T05:16:11.537Z,36.13
2022-12-11T05:18:38.748Z,36.45
2022-12-11T05:21:08.684Z,36.90
2022-12-11T05:23:35.872Z,33.63
2022-12-11T05:26:07.865Z,36.45
2022-12-11T05:28:37.087Z,36.45
2022-12-11T05:31:12.317Z,35.35
2022-12-11T05:33:39.470Z,35.55
2022-12-11T05:36:07.574Z,35.03
2022-12-11T05:38:34.831Z,34.58
2022-12-11T05:41:04.047Z,33.42
2022-12-11T05:43:33.453Z,34.25
2022-12-11T05:46:17.046Z,34.55
2022-12-11T05:48:46.253Z,36.40
2022-12-11T05:51:14.434Z,33.78
2022-12-11T05:53:43.118Z,32.53
2022-12-11T05:56:26.705Z,36.05
2022-12-11T05:58:54.347Z,34.60
2022-12-11T06:01:42.417Z,33.72
2022-12-11T06:04:11.237Z,33.42
2022-12-11T06:06:40.415Z,33.35
2022-12-11T06:09:07.576Z,32.70
2022-12-11T06:11:35.296Z,33.95
2022-12-11T06:14:03.274Z,32.67
2022-12-11T06:16:30.173Z,33.75
2022-12-11T06:18:58.451Z,31.77
2022-12-11T06:21:32.001Z,34.28
2022-12-11T06:24:01.686Z,33.35
2022-12-11T06:26:29.308Z,32.17
2022-12-11T06:28:56.235Z,32.58
2022-12-11T06:31:23.103Z,31.88
2022-12-11T06:33:50.069Z,31.38
2022-12-11T06:36:20.760Z,33.70
2022-12-11T06:38:49.184Z,34.92
2022-12-11T06:41:17.098Z,33.88
2022-12-11T06:43:44.077Z,32.10
2022-12-11T06:46:15.103Z,33.35
2022-12-11T06:48:43.040Z,34.35
2022-12-11T06:51:21.131Z,33.63
2022-12-11T06:53:54.140Z,33.17
2022-12-11T06:56:22.590Z,33.92
2022-12-11T06:58:51.973Z,33.97
2022-12-11T07:01:26.388Z,32.90
2022-12-11T07:03:54.668Z,34.65
2022-12-11T07:06:22.489Z,32.90
2022-12-11T07:08:49.774Z,32.42
2022-12-11T07:11:18.169Z,32.17
2022-12-11T07:13:45.149Z,32.47
2022-12-11T07:16:14.216Z,34.15
2022-12-11T07:18:52.128Z,34.75
2022-12-11T07:21:23.437Z,35.58
2022-12-11T07:23:50.654Z,35.47
2022-12-11T07:26:20.287Z,35.03
2022-12-11T07:28:47.479Z,33.78
2022-12-11T07:31:20.869Z,34.28
2022-12-11T07:33:53.206Z,34.70
2022-12-11T07:36:20.036Z,35.40
2022-12-11T07:38:46.884Z,35.35
2022-12-11T07:41:15.012Z,35.20
2022-12-11T07:43:42.810Z,36.35
2022-12-11T07:46:16.201Z,36.60
2022-12-11T07:48:45.590Z,34.15
2022-12-11T07:51:26.629Z,39.00
2022-12-11T07:53:56.074Z,35.65
2022-12-11T07:56:26.791Z,35.80
2022-12-11T07:58:53.854Z,35.50
2022-12-11T08:01:24.538Z,36.40
2022-12-11T08:03:51.897Z,36.00
2022-12-11T08:06:21.419Z,37.22
2022-12-11T08:08:50.913Z,36.25
2022-12-11T08:11:19.146Z,36.72
2022-12-11T08:13:48.990Z,36.92
2022-12-11T08:16:17.280Z,35.83
2022-12-11T08:18:47.407Z,35.83
2022-12-11T08:21:23.161Z,38.13
2022-12-11T08:23:51.478Z,35.88
2022-12-11T08:26:21.338Z,36.38
2022-12-11T08:28:48.127Z,36.05
2022-12-11T08:31:16.093Z,38.20
2022-12-11T08:33:43.447Z,36.25
2022-12-11T08:36:13.250Z,37.63
2022-12-11T08:38:40.726Z,36.60
2022-12-11T08:41:13.031Z,37.50
2022-12-11T08:43:41.981Z,38.45
2022-12-11T08:46:09.689Z,37.40
2022-12-11T08:48:38.188Z,37.15
2022-12-11T08:51:10.489Z,34.63
2022-12-11T08:53:38.993Z,38.17
2022-12-11T08:56:12.186Z,36.80
2022-12-11T08:58:40.153Z,37.03
2022-12-11T09:01:10.193Z,36.95
2022-12-11T09:03:37.506Z,34.95
2022-12-11T09:06:09.416Z,38.10
2022-12-11T09:08:36.482Z,38.88
2022-12-11T09:11:25.817Z,36.67
2022-12-11T09:13:53.193Z,35.10
2022-12-11T09:16:22.279Z,35.05
2022-12-11T09:18:52.378Z,35.28
2022-12-11T09:21:22.215Z,34.05
2022-12-11T09:23:49.835Z,33.92
2022-12-11T09:26:20.161Z,34.95
2022-12-11T09:28:47.507Z,34.03
2022-12-11T09:31:26.725Z,32.47
2022-12-11T09:34:02.479Z,32.65
2022-12-11T09:36:29.949Z,35.60
2022-12-11T09:39:01.795Z,34.08
2022-12-11T09:41:59.350Z,32.17
2022-12-11T09:44:54.747Z,34.03
2022-12-11T09:47:51.206Z,33.75
2022-12-11T09:50:32.770Z,30.48
2022-12-11T09:56:07.101Z,30.90
2022-12-11T09:58:39.703Z,31.75
2022-12-11T10:01:29.222Z,32.03
2022-12-11T10:04:11.628Z,31.23
2022-12-11T10:06:47.890Z,31.88
2022-12-11T10:09:30.117Z,30.85
2022-12-11T10:12:28.835Z,32.13
2022-12-11T10:15:23.567Z,29.58
2022-12-11T10:17:53.902Z,29.02
2022-12-11T10:20:33.530Z,30.30
2022-12-11T10:23:02.828Z,31.75
2022-12-11T10:25:41.986Z,29.52
2022-12-11T10:28:28.820Z,30.77
2022-12-11T10:31:01.842Z,30.25
2022-12-11T10:33:37.663Z,28.63
2022-12-11T10:36:07.908Z,29.52
2022-12-11T10:38:41.452Z,27.83
2022-12-11T10:41:11.365Z,28.02
2022-12-11T10:43:46.611Z,26.90
2022-12-11T10:46:28.796Z,29.85
2022-12-11T10:48:58.749Z,32.03
2022-12-11T10:51:37.909Z,28.88
2022-12-11T10:54:15.643Z,33.35
2022-12-11T10:56:47.278Z,29.50
2022-12-11T10:59:24.451Z,27.88
2022-12-11T11:01:52.003Z,26.98
2022-12-11T11:04:37.371Z,25.10
2022-12-11T11:07:24.125Z,26.90
2022-12-11T11:10:02.763Z,25.83
2022-12-11T11:12:29.815Z,27.15
2022-12-11T11:15:01.206Z,27.02
2022-12-11T11:17:34.476Z,27.02
2022-12-11T11:20:12.116Z,26.10
2022-12-11T11:22:50.097Z,27.60
2022-12-11T11:25:38.952Z,22.65
2022-12-11T11:28:15.666Z,22.85
2022-12-11T11:30:56.144Z,26.08
2022-12-11T11:33:25.523Z,24.27
2022-12-11T11:36:02.499Z,24.38
2022-12-11T11:38:37.763Z,23.58
2022-12-11T11:41:17.651Z,24.23
2022-12-11T11:44:15.568Z,25.00
2022-12-11T11:47:05.173Z,23.88
2022-12-11T11:49:58.428Z,24.17
2022-12-11T11:52:29.762Z,24.33
2022-12-11T11:55:10.608Z,25.35
2022-12-11T11:58:01.088Z,23.75
2022-12-11T12:00:35.043Z,25.48
2022-12-11T12:03:09.650Z,27.30
2022-12-11T12:06:10.934Z,23.63
2022-12-11T12:08:58.049Z,22.25
2022-12-11T12:11:43.006Z,23.13
2022-12-11T12:14:52.197Z,23.35
2022-12-11T12:17:56.167Z,22.00
2022-12-11T12:20:31.113Z,23.77
2022-12-11T12:23:06.778Z,24.35
2022-12-11T12:25:39.863Z,22.63
2022-12-11T12:28:21.898Z,23.48
2022-12-11T12:31:01.222Z,23.13
2022-12-11T12:33:54.274Z,22.52
2022-12-11T12:36:36.182Z,24.45
2022-12-11T12:39:26.085Z,23.67
2022-12-11T12:42:25.702Z,23.13
2022-12-11T12:45:00.701Z,21.90
2022-12-11T12:47:33.006Z,23.20
2022-12-11T12:50:01.533Z,24.38
2022-12-11T12:52:37.779Z,36.72
2022-12-11T12:55:14.304Z,25.27
2022-12-11T12:57:54.666Z,37.95
2022-12-11T13:00:36.156Z,34.72
2022-12-11T13:03:13.561Z,25.13
2022-12-11T13:05:45.069Z,23.90
2022-12-11T13:10:43.229Z,24.42
2022-12-11T13:13:38.526Z,40.90
2022-12-11T13:16:18.642Z,23.50
2022-12-11T13:18:49.978Z,22.23
2022-12-11T13:21:26.777Z,24.65
2022-12-11T13:23:54.952Z,26.38
2022-12-11T13:26:33.665Z,23.40
2022-12-11T13:29:01.109Z,24.10
2022-12-11T13:31:40.499Z,23.13
2022-12-11T13:34:24.040Z,26.33
2022-12-11T13:36:55.110Z,25.65
2022-12-11T13:39:28.303Z,25.75
2022-12-11T13:42:03.245Z,25.35
2022-12-11T13:44:35.144Z,24.35
2022-12-11T13:47:04.471Z,24.15
2022-12-11T13:49:38.846Z,26.05
2022-12-11T13:52:06.419Z,25.83
2022-12-11T13:54:38.900Z,26.50
2022-12-11T13:57:10.513Z,27.70
2022-12-11T13:59:43.483Z,27.17
2022-12-11T14:02:29.423Z,27.23
2022-12-11T14:05:16.924Z,25.63
2022-12-11T14:07:52.847Z,25.45
2022-12-11T14:10:32.169Z,27.20
2022-12-11T14:13:31.508Z,27.58
2022-12-11T14:15:59.509Z,28.48
2022-12-11T14:18:34.319Z,30.10
2022-12-11T14:21:07.549Z,30.05
2022-12-11T14:23:37.795Z,28.92
2022-12-11T14:26:17.843Z,29.25
2022-12-11T14:28:44.879Z,27.85
2022-12-11T14:31:17.592Z,27.58
2022-12-11T14:34:07.258Z,27.17
2022-12-11T14:36:37.419Z,27.73
2022-12-11T14:39:10.600Z,30.00
2022-12-11T14:41:48.413Z,29.67
2022-12-11T14:44:20.743Z,29.30
2022-12-11T14:46:54.876Z,29.27
2022-12-11T14:49:25.090Z,30.13
2022-12-11T14:51:55.541Z,30.92
2022-12-11T14:54:39.694Z,34.03
2022-12-11T14:57:11.370Z,31.95
2022-12-11T14:59:47.817Z,31.88
2022-12-11T15:02:34.120Z,28.77
2022-12-11T15:05:18.365Z,30.58
2022-12-11T15:07:56.088Z,31.45
2022-12-11T15:10:56.752Z,30.73
2022-12-11T15:13:24.659Z,34.38
2022-12-11T15:15:56.589Z,31.30
2022-12-11T15:18:28.722Z,30.08
2022-12-11T15:20:59.944Z,30.60
2022-12-11T15:23:28.043Z,33.10
2022-12-11T15:25:59.369Z,32.35
2022-12-11T15:28:37.704Z,30.75
2022-12-11T15:31:28.093Z,31.23
2022-12-11T15:33:55.701Z,30.05
2022-12-11T15:36:30.426Z,27.83
2022-12-11T15:38:58.181Z,29.60
2022-12-11T15:41:28.720Z,28.20
2022-12-11T15:43:59.426Z,29.63
2022-12-11T15:46:28.229Z,33.15
2022-12-11T15:48:57.284Z,28.95
2022-12-11T15:51:27.644Z,25.35
2022-12-11T15:53:55.473Z,29.30
2022-12-11T15:56:22.929Z,24.55
2022-12-11T15:58:50.103Z,28.25
2022-12-11T16:01:18.114Z,29.92
2022-12-11T16:03:46.261Z,30.23
2022-12-11T16:06:14.145Z,31.58
2022-12-11T16:08:42.446Z,27.02
2022-12-11T16:11:13.264Z,30.00
2022-12-11T16:13:40.420Z,28.13
2022-12-11T16:16:08.950Z,29.60
2022-12-11T16:18:36.328Z,28.73
2022-12-11T16:21:06.456Z,31.48
2022-12-11T16:23:34.859Z,30.75
2022-12-11T16:26:06.972Z,28.77
2022-12-11T16:28:35.281Z,30.58
2022-12-11T16:31:03.888Z,31.05
2022-12-11T16:33:31.323Z,30.42
2022-12-11T16:35:59.235Z,29.80
2022-12-11T16:38:26.528Z,32.88
2022-12-11T16:41:01.228Z,29.48
2022-12-11T16:43:28.324Z,29.00
2022-12-11T16:45:56.001Z,32.47
2022-12-11T16:48:22.986Z,31.98
2022-12-11T16:50:52.431Z,30.67
2022-12-11T16:53:19.323Z,30.02
2022-12-11T16:55:46.155Z,28.85
2022-12-11T16:59:06.672Z,29.75
2022-12-11T17:01:15.185Z,30.20
2022-12-11T17:03:43.847Z,33.53
2022-12-11T17:06:14.148Z,28.83
2022-12-11T17:08:42.701Z,29.20
2022-12-11T17:11:13.135Z,27.23
2022-12-11T17:13:40.543Z,28.02
2022-12-11T17:16:11.149Z,24.95
2022-12-11T17:18:38.727Z,25.85
2022-12-11T17:21:07.644Z,27.27
2022-12-11T17:23:34.690Z,21.58
2022-12-11T17:26:02.734Z,26.08
2022-12-11T17:28:30.471Z,25.77
2022-12-11T17:30:57.499Z,32.42
2022-12-11T17:33:24.735Z,27.00
2022-12-11T17:35:51.591Z,27.00
2022-12-11T17:38:18.703Z,26.52
2022-12-11T17:40:47.726Z,26.25
2022-12-11T17:43:14.777Z,25.23
2022-12-11T17:45:47.282Z,27.30
2022-12-11T17:48:16.976Z,23.33
2022-12-11T17:50:46.682Z,25.13
2022-12-11T17:53:16.013Z,26.02
2022-12-11T17:55:44.702Z,24.70
2022-12-11T17:58:22.877Z,24.23
2022-12-11T18:00:53.202Z,24.50
2022-12-11T18:03:21.023Z,27.75
2022-12-11T18:05:53.677Z,27.30
2022-12-11T18:08:30.067Z,25.25
2022-12-11T18:11:03.628Z,26.73
2022-12-11T18:13:32.766Z,25.20
2022-12-11T18:16:01.734Z,25.20
2022-12-11T18:18:29.033Z,27.05
2022-12-11T18:20:55.805Z,26.15
2022-12-11T18:23:23.484Z,25.80
2022-12-11T18:25:50.303Z,29.83
2022-12-11T18:28:17.441Z,29.13
2022-12-11T18:30:44.828Z,27.10
2022-12-11T18:33:13.077Z,25.58
2022-12-11T18:35:41.439Z,24.90
2022-12-11T18:38:08.366Z,25.02
2022-12-11T18:40:35.186Z,25.15
2022-12-11T18:43:02.033Z,28.38
2022-12-11T18:45:28.999Z,28.77
2022-12-11T18:47:56.596Z,27.88
2022-12-11T18:50:23.423Z,26.15
2022-12-11T18:52:54.301Z,26.30
2022-12-11T18:55:23.194Z,24.30
2022-12-11T18:57:50.067Z,26.70
2022-12-11T19:00:17.623Z,26.52
2022-12-11T19:02:44.953Z,28.42
2022-12-11T19:05:12.875Z,29.77
2022-12-11T19:07:40.150Z,30.52
2022-12-11T19:10:07.977Z,28.63
2022-12-11T19:12:34.796Z,26.75
2022-12-11T19:15:01.707Z,26.08
2022-12-11T19:17:28.961Z,28.88
2022-12-11T19:19:56.023Z,28.27
2022-12-11T19:22:23.088Z,28.80
2022-12-11T19:24:50.014Z,29.77
2022-12-11T19:27:16.893Z,29.08
2022-12-11T19:29:43.896Z,29.92
2022-12-11T19:32:10.814Z,30.85
2022-12-11T19:34:39.103Z,30.10
2022-12-11T19:37:05.965Z,29.52
2022-12-11T19:39:33.073Z,28.95
2022-12-11T19:42:00.083Z,27.17
2022-12-11T19:44:27.248Z,27.80
2022-12-11T19:46:55.260Z,29.08
2022-12-11T19:49:22.668Z,29.98
2022-12-11T19:51:49.725Z,27.48
2022-12-11T19:54:18.036Z,27.48
2022-12-11T19:56:47.800Z,28.40
2022-12-11T19:59:16.867Z,28.48
2022-12-11T20:01:46.832Z,27.60
2022-12-11T20:04:20.678Z,29.00
2022-12-11T20:06:48.025Z,28.15
2022-12-11T20:09:15.505Z,28.23
2022-12-11T20:11:44.198Z,27.10
2022-12-11T20:14:18.897Z,25.17
2022-12-11T20:17:10.202Z,28.63
2022-12-11T20:19:33.219Z,28.40
2022-12-11T20:22:00.085Z,26.60
2022-12-11T20:24:26.943Z,25.42
2022-12-11T20:26:54.502Z,26.40
2022-12-11T20:29:21.320Z,26.13
2022-12-11T20:31:51.037Z,26.67
2022-12-11T20:34:18.183Z,26.25
2022-12-11T20:36:46.663Z,25.30
2022-12-11T20:39:13.525Z,25.40
2022-12-11T20:41:40.660Z,25.48
2022-12-11T20:44:07.591Z,29.25
2022-12-11T20:46:35.345Z,30.10
2022-12-11T20:49:03.394Z,24.30
2022-12-11T20:51:32.321Z,23.60
2022-12-11T20:53:59.737Z,22.75
2022-12-11T20:56:30.120Z,20.88
2022-12-11T20:58:58.775Z,22.50
2022-12-11T21:01:29.371Z,26.63
2022-12-11T21:03:56.752Z,25.77
2022-12-11T21:06:32.967Z,26.77
2022-12-11T21:09:01.951Z,31.40
2022-12-11T21:11:29.411Z,28.67
2022-12-11T21:13:56.345Z,25.90
2022-12-11T21:16:24.343Z,24.30
2022-12-11T21:18:52.086Z,22.92
2022-12-11T21:21:19.250Z,38.22
2022-12-11T21:23:46.244Z,22.98
2022-12-11T21:26:13.940Z,24.30
2022-12-11T21:28:40.986Z,23.05
2022-12-11T21:31:11.370Z,20.63
2022-12-11T21:33:38.612Z,22.52
2022-12-11T21:36:07.986Z,23.38
2022-12-11T21:38:34.781Z,23.40
2022-12-11T21:41:17.012Z,23.25
2022-12-11T21:44:56.557Z,21.48
2022-12-11T21:46:33.744Z,22.30
2022-12-11T21:49:00.754Z,22.52
2022-12-11T21:51:37.094Z,21.63
2022-12-11T21:54:07.484Z,22.52
2022-12-11T21:56:34.430Z,22.33
2022-12-11T21:59:04.302Z,22.23
2022-12-11T22:01:37.405Z,20.70
2022-12-11T22:04:05.331Z,21.73
2022-12-11T22:06:34.074Z,21.48
2022-12-11T22:09:01.145Z,22.38
2022-12-11T22:11:31.720Z,23.48
2022-12-11T22:13:58.843Z,25.43
2022-12-11T22:16:25.785Z,24.30
2022-12-11T22:18:52.748Z,22.70
2022-12-11T22:21:19.933Z,23.55
2022-12-11T22:23:47.374Z,23.17
2022-12-11T22:26:23.178Z,23.15
2022-12-11T22:28:50.815Z,22.67
2022-12-11T22:31:20.700Z,21.73
2022-12-11T22:33:49.999Z,22.38
2022-12-11T22:36:20.033Z,22.67
2022-12-11T22:38:47.584Z,24.88
2022-12-11T22:41:28.486Z,23.30
2022-12-11T22:43:56.192Z,21.05
2022-12-11T22:46:26.197Z,23.13
2022-12-11T22:48:53.896Z,21.75
2022-12-11T22:51:21.197Z,22.00
2022-12-11T22:53:48.419Z,21.98
2022-12-11T22:56:15.356Z,21.00
2022-12-11T22:58:42.373Z,23.23
2022-12-11T23:01:15.157Z,22.38
2022-12-11T23:03:42.700Z,20.75
2022-12-11T23:06:12.917Z,20.75
2022-12-11T23:08:40.721Z,21.73
2022-12-11T23:11:16.656Z,22.20
2022-12-11T23:13:44.173Z,22.85
2022-12-11T23:16:11.925Z,24.23
2022-12-11T23:18:39.434Z,23.00
2022-12-11T23:21:06.665Z,21.50
2022-12-11T23:23:33.573Z,19.58
2022-12-11T23:26:00.719Z,22.60
2022-12-11T23:28:27.547Z,22.27
2022-12-11T23:30:55.165Z,22.00
2022-12-11T23:33:22.394Z,23.15
2022-12-11T23:35:49.490Z,33.45
2022-12-11T23:38:17.144Z,24.58
2022-12-11T23:40:44.211Z,22.73
2022-12-11T23:43:11.140Z,22.52
2022-12-11T23:45:38.036Z,22.10
2022-12-11T23:48:04.831Z,24.42
2022-12-11T23:50:33.010Z,22.63
2022-12-11T23:53:00.334Z,23.75
2022-12-11T23:55:27.558Z,24.27
2022-12-11T23:57:54.561Z,24.45
